createdAt,value
2019-01-03T00:02:49.281Z,6.20
2019-01-03T00:05:36.553Z,2.47
2019-01-03T00:08:26.583Z,4.13
2019-01-03T00:11:15.921Z,3.00
2019-01-03T00:14:15.171Z,4.63
2019-01-03T00:17:08.448Z,4.03
2019-01-03T00:19:57.579Z,3.73
2019-01-03T00:22:46.730Z,1.73
2019-01-03T00:25:35.813Z,3.63
2019-01-03T00:28:35.979Z,1.90
2019-01-03T00:31:36.008Z,3.03
2019-01-03T00:34:42.356Z,3.53
2019-01-03T00:37:48.366Z,2.33
2019-01-03T00:40:38.917Z,5.03
2019-01-03T00:43:35.318Z,2.10
2019-01-03T00:46:37.724Z,1.83
2019-01-03T00:49:34.421Z,8.23
2019-01-03T00:52:26.042Z,3.27
2019-01-03T00:55:15.414Z,2.00
2019-01-03T00:58:04.551Z,1.80
2019-01-03T01:00:58.129Z,4.07
2019-01-03T01:04:03.751Z,2.97
2019-01-03T01:06:53.294Z,3.20
2019-01-03T01:09:40.122Z,2.10
2019-01-03T01:12:30.658Z,2.70
2019-01-03T01:15:24.110Z,1.43
2019-01-03T01:18:13.290Z,1.27
2019-01-03T01:20:58.932Z,2.00
2019-01-03T01:23:49.353Z,3.07
2019-01-03T01:26:45.837Z,3.10
2019-01-03T01:29:39.354Z,2.07
2019-01-03T01:32:38.718Z,5.00
2019-01-03T01:35:38.383Z,3.17
2019-01-03T01:38:40.650Z,1.83
2019-01-03T01:41:43.207Z,2.47
2019-01-03T01:44:39.442Z,2.00
2019-01-03T01:47:41.949Z,2.70
2019-01-03T01:50:47.436Z,2.93
2019-01-03T01:53:36.747Z,2.20
2019-01-03T01:56:42.261Z,2.10
2019-01-03T01:59:32.813Z,4.27
2019-01-03T02:02:29.541Z,2.97
2019-01-03T02:05:28.110Z,4.33
2019-01-03T02:08:17.398Z,2.90
2019-01-03T02:11:17.031Z,5.67
2019-01-03T02:14:13.322Z,2.57
2019-01-03T02:17:02.531Z,3.20
2019-01-03T02:19:53.887Z,2.83
2019-01-03T02:22:50.349Z,4.80
2019-01-03T02:25:43.840Z,2.73
2019-01-03T02:28:34.291Z,2.37
2019-01-03T02:31:37.002Z,4.23
2019-01-03T02:34:39.271Z,2.90
2019-01-03T02:37:28.163Z,3.43
2019-01-03T02:40:17.288Z,4.60
2019-01-03T02:43:06.400Z,3.23
2019-01-03T02:45:56.887Z,4.07
2019-01-03T02:48:46.259Z,2.97
2019-01-03T02:51:41.620Z,6.30
2019-01-03T02:54:48.534Z,2.50
2019-01-03T02:57:40.305Z,5.23
2019-01-03T03:00:36.551Z,5.20
2019-01-03T03:03:21.565Z,5.87
2019-01-03T03:06:06.989Z,2.67
2019-01-03T03:08:55.456Z,3.23
2019-01-03T03:11:44.521Z,2.10
2019-01-03T03:14:41.007Z,4.83
2019-01-03T03:17:37.536Z,4.07
2019-01-03T03:20:31.192Z,4.63
2019-01-03T03:23:28.002Z,4.00
2019-01-03T03:26:30.359Z,6.53
2019-01-03T03:29:19.649Z,3.23
2019-01-03T03:32:16.660Z,3.30
2019-01-03T03:35:11.172Z,3.07
2019-01-03T03:37:58.903Z,1.90
2019-01-03T03:40:58.643Z,4.20
2019-01-03T03:43:49.050Z,3.57
2019-01-03T03:46:37.137Z,3.77
2019-01-03T03:49:26.436Z,4.27
2019-01-03T03:52:16.021Z,2.37
2019-01-03T03:55:12.486Z,3.80
2019-01-03T03:58:01.886Z,1.83
2019-01-03T04:00:52.392Z,3.40
2019-01-03T04:03:45.894Z,4.77
2019-01-03T04:06:39.605Z,3.93
2019-01-03T04:09:30.641Z,8.37
2019-01-03T04:12:33.264Z,0.80
2019-01-03T04:15:30.013Z,2.07
2019-01-03T04:18:19.116Z,4.67
2019-01-03T04:21:12.808Z,1.93
2019-01-03T04:24:09.269Z,3.33
2019-01-03T04:26:59.647Z,5.90
2019-01-03T04:29:49.955Z,2.37
2019-01-03T04:32:38.521Z,4.17
2019-01-03T04:35:28.101Z,2.93
2019-01-03T04:38:22.622Z,3.03
2019-01-03T04:41:14.891Z,2.77
2019-01-03T04:44:11.363Z,1.90
2019-01-03T04:47:10.662Z,2.47
2019-01-03T04:49:56.543Z,5.87
2019-01-03T04:52:46.956Z,3.80
2019-01-03T04:55:36.001Z,2.93
2019-01-03T04:58:23.991Z,2.27
2019-01-03T05:02:07.326Z,4.10
2019-01-03T05:04:52.699Z,5.20
2019-01-03T05:07:43.136Z,4.37
2019-01-03T05:10:32.384Z,4.57
2019-01-03T05:13:25.952Z,6.73
2019-01-03T05:16:15.235Z,5.03
2019-01-03T05:19:24.028Z,6.77
2019-01-03T05:22:16.697Z,4.47
2019-01-03T05:25:22.431Z,4.43
2019-01-03T05:28:21.968Z,4.13
2019-01-03T05:31:15.645Z,5.53
2019-01-03T05:34:05.206Z,6.63
2019-01-03T05:36:47.276Z,11.97
2019-01-03T05:39:46.812Z,8.10
2019-01-03T05:42:52.743Z,8.63
2019-01-03T05:45:41.816Z,7.27
2019-01-03T05:48:31.008Z,6.97
2019-01-03T05:51:26.076Z,8.03
2019-01-03T05:54:15.197Z,5.27
2019-01-03T05:57:04.603Z,7.30
2019-01-03T05:59:53.120Z,5.33
2019-01-03T06:02:43.564Z,7.43
2019-01-03T06:05:44.074Z,3.33
2019-01-03T06:08:40.605Z,6.83
2019-01-03T06:11:37.316Z,7.00
2019-01-03T06:14:26.863Z,6.47
2019-01-03T06:17:17.047Z,6.27
2019-01-03T06:20:04.070Z,4.00
2019-01-03T06:22:49.900Z,5.53
2019-01-03T06:25:39.016Z,6.30
2019-01-03T06:28:29.404Z,4.07
2019-01-03T06:31:18.316Z,4.87
2019-01-03T06:34:08.799Z,7.33
2019-01-03T06:37:02.227Z,4.80
2019-01-03T06:39:43.964Z,4.27
2019-01-03T06:42:33.193Z,4.93
2019-01-03T06:45:39.122Z,7.47
2019-01-03T06:48:28.906Z,5.03
2019-01-03T06:51:25.248Z,5.43
2019-01-03T06:54:24.739Z,4.33
2019-01-03T06:57:24.290Z,9.30
2019-01-03T07:00:30.183Z,8.00
2019-01-03T07:03:20.029Z,7.23
2019-01-03T07:06:09.507Z,4.40
2019-01-03T07:09:00.034Z,6.57
2019-01-03T07:11:49.449Z,17.77
2019-01-03T07:14:38.717Z,11.60
2019-01-03T07:17:29.087Z,6.80
2019-01-03T07:20:29.290Z,8.90
2019-01-03T07:23:38.027Z,9.30
2019-01-03T07:26:17.452Z,8.43
2019-01-03T07:29:02.328Z,10.83
2019-01-03T07:31:55.576Z,10.77
2019-01-03T07:35:04.295Z,10.43
2019-01-03T07:38:13.127Z,9.63
2019-01-03T07:41:12.817Z,7.23
2019-01-03T07:44:21.478Z,6.53
2019-01-03T07:47:20.943Z,8.73
2019-01-03T07:50:10.073Z,7.03
2019-01-03T07:53:12.908Z,10.33
2019-01-03T07:56:03.391Z,6.87
2019-01-03T07:58:53.857Z,8.73
2019-01-03T08:01:43.043Z,10.50
2019-01-03T08:04:37.996Z,7.70
2019-01-03T08:07:27.219Z,8.17
2019-01-03T08:10:16.478Z,7.63
2019-01-03T08:13:18.916Z,10.90
2019-01-03T08:16:09.447Z,11.90
2019-01-03T08:19:02.029Z,8.90
2019-01-03T08:21:52.495Z,10.67
2019-01-03T08:24:45.741Z,14.77
2019-01-03T08:27:44.099Z,6.77
2019-01-03T08:30:52.672Z,8.70
2019-01-03T08:33:41.908Z,6.27
2019-01-03T08:36:31.061Z,6.57
2019-01-03T08:39:27.569Z,7.17
2019-01-03T08:42:16.659Z,6.43
2019-01-03T08:45:16.481Z,5.17
2019-01-03T08:48:05.857Z,5.97
2019-01-03T08:50:55.610Z,7.77
2019-01-03T08:54:01.436Z,5.27
2019-01-03T08:56:58.008Z,9.27
2019-01-03T08:59:48.411Z,8.20
2019-01-03T09:02:57.326Z,6.13
2019-01-03T09:05:46.858Z,7.10
2019-01-03T09:08:43.190Z,8.90
2019-01-03T09:11:42.511Z,6.93
2019-01-03T09:14:39.040Z,3.70
2019-01-03T09:17:28.549Z,2.77
2019-01-03T09:20:37.200Z,5.40
2019-01-03T09:23:26.681Z,5.13
2019-01-03T09:26:20.122Z,7.60
2019-01-03T09:29:09.134Z,8.23
2019-01-03T09:31:59.430Z,5.20
2019-01-03T09:34:53.826Z,4.93
2019-01-03T09:37:44.311Z,4.33
2019-01-03T09:40:33.340Z,6.53
2019-01-03T09:43:32.856Z,23.43
2019-01-03T09:46:04.487Z,9.23
2019-01-03T09:48:36.087Z,6.63
2019-01-03T09:51:09.033Z,4.57
2019-01-03T09:53:40.623Z,7.10
2019-01-03T09:56:12.189Z,6.53
2019-01-03T09:58:43.841Z,7.07
2019-01-03T10:01:15.415Z,7.63
2019-01-03T10:03:46.986Z,5.33
2019-01-03T10:06:18.562Z,9.53
2019-01-03T10:08:50.152Z,7.20
2019-01-03T10:11:21.727Z,6.97
2019-01-03T10:13:53.356Z,7.17
2019-01-03T10:16:24.969Z,3.43
2019-01-03T10:18:56.562Z,8.37
2019-01-03T10:21:28.180Z,8.80
2019-01-03T10:23:59.808Z,6.13
2019-01-03T10:26:31.469Z,5.63
2019-01-03T10:29:03.093Z,9.00
2019-01-03T10:31:42.635Z,12.00
2019-01-03T10:34:16.929Z,8.60
2019-01-03T10:36:49.740Z,10.90
2019-01-03T10:39:23.074Z,8.00
2019-01-03T10:41:54.829Z,8.13
2019-01-03T10:44:26.421Z,6.03
2019-01-03T10:46:58.054Z,5.37
2019-01-03T10:49:29.713Z,11.97
2019-01-03T10:52:01.853Z,7.53
2019-01-03T10:54:33.489Z,7.87
2019-01-03T10:57:05.253Z,6.10
2019-01-03T10:59:37.153Z,3.17
2019-01-03T11:02:08.836Z,5.10
2019-01-03T11:04:40.413Z,5.93
2019-01-03T11:07:12.085Z,4.60
2019-01-03T11:09:43.743Z,10.63
2019-01-03T11:12:15.448Z,8.73
2019-01-03T11:14:48.130Z,10.60
2019-01-03T11:17:19.729Z,8.13
2019-01-03T11:19:51.382Z,9.30
2019-01-03T11:22:23.058Z,7.00
2019-01-03T11:24:54.636Z,6.63
2019-01-03T11:27:26.341Z,7.23
2019-01-03T11:29:57.933Z,7.50
2019-01-03T11:32:29.543Z,4.87
2019-01-03T11:35:01.126Z,6.10
2019-01-03T11:37:32.884Z,3.93
2019-01-03T11:40:04.761Z,5.53
2019-01-03T11:42:41.219Z,5.53
2019-01-03T11:45:12.897Z,8.03
2019-01-03T11:47:44.596Z,5.90
2019-01-03T11:50:16.256Z,6.73
2019-01-03T11:52:48.938Z,6.97
2019-01-03T11:55:20.601Z,6.63
2019-01-03T11:57:52.178Z,8.17
2019-01-03T12:00:23.782Z,5.47
2019-01-03T12:02:55.337Z,4.63
2019-01-03T12:05:26.984Z,4.47
2019-01-03T12:07:58.613Z,9.00
2019-01-03T12:10:30.233Z,5.03
2019-01-03T12:13:01.819Z,6.50
2019-01-03T12:15:33.496Z,8.87
2019-01-03T12:18:05.122Z,7.27
2019-01-03T12:20:36.901Z,10.30
2019-01-03T12:23:08.544Z,8.33
2019-01-03T12:25:40.087Z,5.13
2019-01-03T12:28:11.752Z,5.37
2019-01-03T12:30:43.296Z,6.80
2019-01-03T12:33:14.954Z,5.33
2019-01-03T12:35:46.552Z,6.27
2019-01-03T12:38:18.169Z,11.47
2019-01-03T12:40:49.820Z,5.37
2019-01-03T12:43:21.490Z,7.93
2019-01-03T12:45:53.116Z,6.17
2019-01-03T12:48:24.828Z,6.70
2019-01-03T12:50:56.454Z,6.57
2019-01-03T12:53:28.139Z,8.57
2019-01-03T12:55:59.741Z,6.60
2019-01-03T12:58:31.338Z,8.37
2019-01-03T13:01:02.923Z,9.40
2019-01-03T13:03:34.550Z,9.20
2019-01-03T13:06:06.158Z,8.77
2019-01-03T13:08:37.947Z,5.73
2019-01-03T13:11:09.597Z,6.37
2019-01-03T13:13:41.215Z,8.73
2019-01-03T13:16:12.804Z,8.73
2019-01-03T13:18:44.395Z,6.67
2019-01-03T13:21:16.111Z,6.33
2019-01-03T13:23:47.810Z,6.97
2019-01-03T13:26:19.527Z,8.70
2019-01-03T13:28:51.185Z,7.43
2019-01-03T13:31:22.929Z,7.67
2019-01-03T13:33:54.787Z,8.80
2019-01-03T13:36:26.450Z,6.33
2019-01-03T13:38:58.055Z,8.17
2019-01-03T13:41:29.677Z,9.37
2019-01-03T13:44:02.840Z,8.13
2019-01-03T13:46:34.625Z,11.27
2019-01-03T13:49:06.353Z,8.33
2019-01-03T13:51:38.267Z,6.93
2019-01-03T13:54:09.920Z,12.47
2019-01-03T13:56:42.484Z,9.07
2019-01-03T13:59:14.204Z,10.20
2019-01-03T14:01:45.859Z,8.37
2019-01-03T14:04:17.576Z,9.57
2019-01-03T14:06:50.270Z,8.23
2019-01-03T14:09:21.871Z,14.67
2019-01-03T14:11:53.529Z,12.00
2019-01-03T14:14:25.254Z,9.03
2019-01-03T14:16:57.116Z,7.50
2019-01-03T14:19:28.718Z,6.07
2019-01-03T14:22:00.461Z,10.80
2019-01-03T14:24:32.160Z,8.17
2019-01-03T14:27:03.784Z,11.43
2019-01-03T14:29:35.436Z,11.47
2019-01-03T14:32:07.140Z,7.47
2019-01-03T14:34:38.842Z,7.30
2019-01-03T14:37:12.253Z,13.43
2019-01-03T14:39:44.038Z,14.30
2019-01-03T14:42:15.776Z,11.03
2019-01-03T14:44:47.636Z,10.63
2019-01-03T14:47:19.216Z,11.43
2019-01-03T14:49:51.069Z,20.27
2019-01-03T14:52:22.697Z,15.77
2019-01-03T14:54:54.407Z,18.10
2019-01-03T14:57:26.073Z,10.43
2019-01-03T14:59:57.899Z,15.07
2019-01-03T15:02:29.556Z,13.67
2019-01-03T15:05:01.254Z,16.23
2019-01-03T15:07:32.934Z,10.77
2019-01-03T15:10:04.907Z,8.40
2019-01-03T15:12:36.528Z,14.80
2019-01-03T15:15:08.555Z,11.10
2019-01-03T15:17:40.306Z,10.20
2019-01-03T15:20:13.042Z,9.40
2019-01-03T15:22:44.698Z,7.13
2019-01-03T15:25:16.384Z,7.93
2019-01-03T15:27:48.147Z,11.90
2019-01-03T15:30:19.731Z,16.30
2019-01-03T15:32:53.556Z,9.17
2019-01-03T15:35:25.234Z,11.90
2019-01-03T15:37:57.074Z,8.43
2019-01-03T15:40:29.797Z,7.10
2019-01-03T15:43:01.421Z,6.97
2019-01-03T15:45:33.209Z,8.60
2019-01-03T15:48:04.867Z,10.10
2019-01-03T15:50:36.862Z,9.60
2019-01-03T15:53:08.645Z,18.13
2019-01-03T15:55:40.482Z,12.53
2019-01-03T15:58:12.224Z,8.93
2019-01-03T16:00:43.946Z,14.73
2019-01-03T16:03:16.150Z,13.90
2019-01-03T16:05:48.278Z,10.27
2019-01-03T16:08:21.151Z,19.17
2019-01-03T16:10:53.195Z,20.60
2019-01-03T16:13:25.253Z,17.93
2019-01-03T16:15:57.084Z,8.13
2019-01-03T16:18:29.505Z,14.10
2019-01-03T16:21:01.653Z,8.63
2019-01-03T16:23:33.402Z,24.90
2019-01-03T16:26:05.075Z,12.47
2019-01-03T16:28:37.125Z,21.27
2019-01-03T16:31:08.845Z,9.70
2019-01-03T16:33:40.468Z,12.47
2019-01-03T16:36:12.088Z,17.50
2019-01-03T16:38:43.923Z,18.10
2019-01-03T16:41:15.536Z,11.10
2019-01-03T16:43:47.149Z,7.73
2019-01-03T16:46:18.944Z,14.77
2019-01-03T16:48:50.593Z,11.37
2019-01-03T16:51:22.171Z,19.47
2019-01-03T16:53:54.002Z,13.30
2019-01-03T16:56:25.654Z,24.37
2019-01-03T16:58:57.284Z,16.30
2019-01-03T17:01:28.884Z,11.47
2019-01-03T17:04:00.495Z,11.97
2019-01-03T17:06:32.472Z,12.33
2019-01-03T17:09:04.866Z,11.07
2019-01-03T17:11:36.554Z,14.63
2019-01-03T17:14:09.028Z,9.03
2019-01-03T17:16:41.125Z,11.40
2019-01-03T17:19:13.073Z,12.07
2019-01-03T17:21:45.088Z,15.10
2019-01-03T17:24:16.976Z,16.03
2019-01-03T17:26:48.632Z,17.97
2019-01-03T17:29:24.329Z,16.63
2019-01-03T17:31:55.995Z,13.97
2019-01-03T17:34:28.024Z,8.70
2019-01-03T17:36:59.947Z,11.67
2019-01-03T17:39:31.805Z,15.40
2019-01-03T17:42:03.494Z,12.43
2019-01-03T17:44:35.278Z,11.93
2019-01-03T17:47:07.251Z,12.57
2019-01-03T17:49:39.662Z,11.07
2019-01-03T17:52:11.954Z,14.80
2019-01-03T17:54:43.595Z,14.60
2019-01-03T17:57:15.727Z,13.90
2019-01-03T17:59:47.329Z,12.20
2019-01-03T18:02:18.927Z,12.23
2019-01-03T18:04:50.990Z,15.83
2019-01-03T18:07:23.063Z,10.93
2019-01-03T18:09:55.271Z,8.40
2019-01-03T18:12:26.978Z,15.83
2019-01-03T18:14:59.901Z,13.00
2019-01-03T18:17:31.554Z,11.83
2019-01-03T18:20:03.293Z,9.40
2019-01-03T18:22:35.962Z,12.57
2019-01-03T18:25:49.266Z,17.23
2019-01-03T18:28:22.533Z,12.97
2019-01-03T18:30:54.258Z,17.10
2019-01-03T18:33:25.929Z,15.00
2019-01-03T18:35:57.707Z,15.60
2019-01-03T18:38:29.407Z,13.40
2019-01-03T18:41:01.092Z,14.27
2019-01-03T18:43:32.767Z,14.63
2019-01-03T18:46:04.791Z,14.90
2019-01-03T18:48:36.571Z,13.00
2019-01-03T18:51:08.384Z,20.47
2019-01-03T18:53:40.045Z,17.10
2019-01-03T18:56:11.690Z,10.87
2019-01-03T18:58:43.509Z,10.27
2019-01-03T19:01:16.094Z,9.83
2019-01-03T19:03:47.865Z,13.97
2019-01-03T19:06:19.726Z,26.53
2019-01-03T19:08:51.495Z,43.57
2019-01-03T19:11:23.403Z,27.80
2019-01-03T19:13:58.261Z,25.07
2019-01-03T19:16:33.517Z,47.63
2019-01-03T19:19:05.222Z,32.30
2019-01-03T19:21:37.756Z,37.13
2019-01-03T19:24:09.711Z,30.50
2019-01-03T19:26:41.819Z,20.97
2019-01-03T19:29:13.504Z,21.93
2019-01-03T19:31:45.542Z,22.60
2019-01-03T19:34:20.263Z,36.23
2019-01-03T19:36:52.016Z,25.80
2019-01-03T19:39:25.383Z,9.47
2019-01-03T19:41:57.083Z,16.70
2019-01-03T19:44:28.692Z,18.97
2019-01-03T19:47:00.431Z,20.80
2019-01-03T19:49:32.035Z,21.93
2019-01-03T19:52:03.669Z,16.43
2019-01-03T19:54:35.362Z,18.63
2019-01-03T19:57:06.976Z,10.80
2019-01-03T19:59:39.230Z,11.63
2019-01-03T20:02:10.926Z,12.57
2019-01-03T20:04:42.545Z,15.13
2019-01-03T20:07:14.148Z,14.33
2019-01-03T20:09:45.896Z,16.77
2019-01-03T20:12:17.558Z,12.03
2019-01-03T20:14:49.400Z,9.50
2019-01-03T20:17:21.081Z,11.53
2019-01-03T20:19:52.898Z,12.13
2019-01-03T20:22:24.587Z,11.37
2019-01-03T20:24:57.367Z,8.50
2019-01-03T20:27:29.166Z,15.33
2019-01-03T20:30:00.990Z,10.20
2019-01-03T20:32:32.775Z,11.90
2019-01-03T20:35:04.608Z,11.93
2019-01-03T20:37:36.557Z,11.20
2019-01-03T20:40:09.133Z,13.83
2019-01-03T20:42:40.959Z,26.57
2019-01-03T20:45:13.499Z,8.57
2019-01-03T20:47:45.373Z,12.93
2019-01-03T20:50:17.198Z,11.00
2019-01-03T20:52:48.914Z,10.07
2019-01-03T20:55:20.499Z,13.10
2019-01-03T20:57:52.386Z,12.90
2019-01-03T21:00:24.160Z,8.17
2019-01-03T21:02:55.962Z,13.00
2019-01-03T21:05:27.721Z,13.93
2019-01-03T21:07:59.558Z,14.30
2019-01-03T21:10:31.283Z,14.13
2019-01-03T21:13:03.075Z,10.87
2019-01-03T21:15:35.246Z,13.40
2019-01-03T21:18:06.973Z,14.10
2019-01-03T21:20:38.684Z,17.63
2019-01-03T21:23:10.299Z,18.17
2019-01-03T21:25:42.055Z,21.30
2019-01-03T21:28:13.896Z,18.27
2019-01-03T21:30:45.569Z,18.97
2019-01-03T21:33:17.353Z,19.53
2019-01-03T21:35:49.066Z,20.00
2019-01-03T21:38:20.865Z,17.30
2019-01-03T21:40:55.507Z,18.07
2019-01-03T21:43:27.139Z,14.70
2019-01-03T21:45:58.975Z,12.93
2019-01-03T21:48:30.786Z,13.60
2019-01-03T21:51:03.693Z,11.67
2019-01-03T21:53:35.318Z,9.40
2019-01-03T21:56:07.145Z,8.67
2019-01-03T21:58:38.855Z,8.50
2019-01-03T22:01:10.525Z,11.43
2019-01-03T22:03:43.064Z,9.00
2019-01-03T22:06:14.736Z,7.83
2019-01-03T22:08:46.944Z,9.37
2019-01-03T22:11:18.611Z,10.03
2019-01-03T22:13:50.563Z,12.43
2019-01-03T22:16:22.252Z,9.40
2019-01-03T22:18:54.149Z,9.57
2019-01-03T22:21:26.004Z,12.63
2019-01-03T22:23:57.696Z,9.93
2019-01-03T22:26:29.387Z,15.40
2019-01-03T22:29:01.065Z,10.47
2019-01-03T22:31:32.689Z,11.00
2019-01-03T22:34:04.441Z,10.93
2019-01-03T22:36:36.130Z,9.63
2019-01-03T22:39:07.982Z,12.37
2019-01-03T22:41:39.743Z,7.80
2019-01-03T22:44:11.369Z,11.67
2019-01-03T22:46:43.082Z,9.50
2019-01-03T22:49:14.656Z,12.03
2019-01-03T22:51:46.309Z,8.83
2019-01-03T22:54:17.979Z,10.07
2019-01-03T22:56:49.576Z,18.23
2019-01-03T22:59:21.226Z,10.93
2019-01-03T23:01:52.967Z,13.80
2019-01-03T23:04:24.663Z,8.30
2019-01-03T23:06:56.562Z,6.27
2019-01-03T23:09:28.587Z,10.23
2019-01-03T23:12:00.209Z,6.17
2019-01-03T23:14:31.787Z,8.40
2019-01-03T23:17:03.375Z,8.27
2019-01-03T23:19:34.967Z,11.37
2019-01-03T23:22:06.666Z,9.37
2019-01-03T23:24:38.293Z,8.30
2019-01-03T23:27:09.915Z,7.13
2019-01-03T23:29:41.518Z,7.47
2019-01-03T23:32:13.221Z,7.63
2019-01-03T23:34:44.836Z,9.80
2019-01-03T23:37:19.318Z,8.23
2019-01-03T23:39:51.084Z,5.33
2019-01-03T23:42:22.902Z,7.47
2019-01-03T23:45:33.046Z,5.60
2019-01-03T23:48:06.496Z,10.13
2019-01-03T23:50:38.660Z,6.00
2019-01-03T23:53:10.578Z,6.67
2019-01-03T23:55:48.519Z,7.70
2019-01-03T23:58:20.107Z,6.07
